CheckWX is a tool to help pilots better visualize weather data.  It is not intended as a substitute for an official pre-flight weather briefing.

21:31:55 UTC

K1FW METAR
Foxtrot Madis Automatic Weather Observing System
Dix, Nebraska, USA
Current

34 mins ago

K1FW 082058Z AUTO 04011G17KT 10SM CLR 13/00 A3009 RMK AO2 SLP168 T01311005 57010 $
Observed
Apr-8 @ 20:58 UTC
Wind
  • 040° at 11 KTS
  • Gusting to 17 KTS
Visibility
Flight Rules
VFR
Cloud Levels
  • Clear skies
Temperature
13°C / 55°F
Dewpoint
C / 32°F
Humidity
41%
Altimeter
30.09" Hg
Pressure
1018.92 hPa
Previous

2 hours ago

K1FW 081958Z AUTO 02012G17KT 10SM CLR 13/00 A3010 RMK AO2 SLP172 T01251002 $
Observed
Apr-8 @ 19:58 UTC
Wind
  • 020° at 12 KTS
  • Gusting to 17 KTS
Visibility
Flight Rules
VFR
Cloud Levels
  • Clear skies
Temperature
12°C / 54°F
Dewpoint
C / 32°F
Humidity
44%
Altimeter
30.1" Hg
Pressure
1019.32 hPa
Previous

3 hours ago

K1FW 081858Z AUTO 03009G16KT 10SM CLR 13/M01 A3011 RMK AO2 SLP179 T01251009 $
Observed
Apr-8 @ 18:58 UTC
Wind
  • 030° at 9 KTS
  • Gusting to 16 KTS
Visibility
Flight Rules
VFR
Cloud Levels
  • Clear skies
Temperature
12°C / 54°F
Dewpoint
-1°C / 30°F
Humidity
41%
Altimeter
30.11" Hg
Pressure
1019.62 hPa